createdAt,value
2022-12-11T00:00:15.731Z,10.65
2022-12-11T00:02:42.531Z,10.00
2022-12-11T00:05:09.791Z,9.82
2022-12-11T00:07:37.195Z,11.10
2022-12-11T00:10:05.071Z,10.40
2022-12-11T00:12:32.049Z,10.00
2022-12-11T00:14:58.935Z,10.50
2022-12-11T00:17:25.677Z,9.85
2022-12-11T00:19:52.426Z,10.18
2022-12-11T00:22:19.159Z,10.00
2022-12-11T00:24:45.856Z,9.55
2022-12-11T00:27:12.665Z,10.45
2022-12-11T00:29:39.441Z,10.60
2022-12-11T00:32:06.354Z,11.40
2022-12-11T00:34:33.112Z,10.15
2022-12-11T00:37:00.017Z,10.27
2022-12-11T00:39:26.776Z,9.90
2022-12-11T00:41:53.527Z,10.05
2022-12-11T00:44:20.290Z,10.57
2022-12-11T00:46:47.034Z,9.88
2022-12-11T00:49:13.869Z,11.10
2022-12-11T00:51:40.600Z,10.80
2022-12-11T00:54:07.329Z,9.98
2022-12-11T00:56:34.062Z,10.68
2022-12-11T00:59:00.818Z,10.65
2022-12-11T01:01:27.609Z,9.93
2022-12-11T01:03:54.642Z,10.40
2022-12-11T01:06:25.956Z,10.45
2022-12-11T01:09:11.985Z,9.48
2022-12-11T01:11:39.375Z,10.45
2022-12-11T01:14:06.527Z,10.70
2022-12-11T01:16:33.431Z,10.85
2022-12-11T01:19:00.446Z,10.45
2022-12-11T01:21:27.233Z,10.43
2022-12-11T01:23:53.983Z,9.65
2022-12-11T01:26:21.582Z,10.55
2022-12-11T01:28:52.315Z,10.00
2022-12-11T01:31:22.849Z,10.73
2022-12-11T01:33:49.745Z,9.43
2022-12-11T01:36:20.808Z,10.45
2022-12-11T01:38:49.141Z,10.55
2022-12-11T01:41:18.161Z,10.85
2022-12-11T01:44:07.678Z,10.43
2022-12-11T01:46:36.803Z,10.70
2022-12-11T01:49:11.731Z,11.05
2022-12-11T01:51:53.231Z,10.27
2022-12-11T01:54:24.740Z,10.93
2022-12-11T01:56:55.017Z,11.00
2022-12-11T01:59:26.889Z,10.98
2022-12-11T02:02:04.800Z,10.45
2022-12-11T02:04:35.328Z,10.77
2022-12-11T02:07:03.581Z,10.30
2022-12-11T02:09:35.306Z,9.68
2022-12-11T02:12:39.996Z,10.25
2022-12-11T02:15:48.760Z,11.55
2022-12-11T02:18:33.808Z,10.68
2022-12-11T02:21:13.207Z,10.88
2022-12-11T02:24:01.078Z,11.85
2022-12-11T02:27:17.848Z,11.43
2022-12-11T02:30:12.131Z,10.63
2022-12-11T02:32:57.609Z,11.35
2022-12-11T02:35:33.218Z,10.90
2022-12-11T02:38:16.656Z,10.10
2022-12-11T02:40:45.076Z,9.90
2022-12-11T02:43:16.034Z,9.90
2022-12-11T02:45:46.828Z,9.80
2022-12-11T02:48:15.730Z,9.98
2022-12-11T02:50:50.094Z,10.95
2022-12-11T02:53:22.049Z,11.00
2022-12-11T02:55:58.107Z,11.35
2022-12-11T02:58:32.396Z,10.77
2022-12-11T03:00:59.342Z,10.38
2022-12-11T03:03:29.365Z,10.43
2022-12-11T03:05:56.314Z,10.98
2022-12-11T03:08:23.079Z,11.20
2022-12-11T03:10:49.946Z,11.25
2022-12-11T03:13:21.455Z,10.93
2022-12-11T03:16:09.171Z,11.07
2022-12-11T03:19:22.489Z,10.18
2022-12-11T03:22:00.646Z,9.63
2022-12-11T03:24:39.420Z,10.52
2022-12-11T03:27:25.282Z,11.40
2022-12-11T03:30:08.703Z,11.70
2022-12-11T03:33:01.071Z,11.27
2022-12-11T03:35:37.836Z,10.82
2022-12-11T03:38:18.673Z,10.32
2022-12-11T03:40:50.902Z,10.90
2022-12-11T03:43:20.078Z,11.75
2022-12-11T03:45:49.638Z,11.07
2022-12-11T03:48:19.238Z,11.48
2022-12-11T03:50:48.623Z,11.55
2022-12-11T03:53:16.800Z,11.13
2022-12-11T03:55:43.584Z,10.55
2022-12-11T03:58:10.446Z,10.75
2022-12-11T04:00:37.627Z,11.10
2022-12-11T04:03:14.096Z,11.35
2022-12-11T04:05:51.649Z,12.30
2022-12-11T04:08:20.947Z,10.73
2022-12-11T04:10:49.099Z,10.80
2022-12-11T04:13:15.824Z,11.35
2022-12-11T04:15:42.628Z,11.35
2022-12-11T04:18:29.156Z,12.38
2022-12-11T04:21:15.116Z,11.80
2022-12-11T04:24:01.162Z,11.88
2022-12-11T04:26:27.984Z,11.35
2022-12-11T04:28:54.716Z,11.52
2022-12-11T04:31:23.276Z,10.93
2022-12-11T04:33:50.369Z,11.40
2022-12-11T04:36:17.977Z,11.52
2022-12-11T04:38:44.692Z,11.73
2022-12-11T04:41:15.097Z,11.57
2022-12-11T04:43:45.229Z,12.05
2022-12-11T04:46:22.042Z,11.75
2022-12-11T04:48:56.741Z,13.05
2022-12-11T04:51:25.212Z,12.98
2022-12-11T04:53:52.554Z,12.70
2022-12-11T04:56:19.681Z,13.40
2022-12-11T04:58:47.183Z,12.27
2022-12-11T05:01:22.057Z,13.07
2022-12-11T05:03:49.175Z,11.77
2022-12-11T05:06:16.371Z,12.57
2022-12-11T05:08:45.321Z,12.07
2022-12-11T05:11:15.227Z,13.30
2022-12-11T05:13:42.631Z,12.77
2022-12-11T05:16:13.145Z,12.27
2022-12-11T05:18:40.248Z,12.73
2022-12-11T05:21:13.071Z,12.48
2022-12-11T05:23:40.810Z,11.82
2022-12-11T05:26:17.001Z,11.60
2022-12-11T05:28:44.579Z,11.90
2022-12-11T05:31:18.530Z,11.82
2022-12-11T05:36:18.868Z,11.10
2022-12-11T05:38:45.987Z,11.68
2022-12-11T05:41:16.741Z,11.02
2022-12-11T05:43:44.298Z,12.15
2022-12-11T05:46:16.274Z,11.43
2022-12-11T05:48:46.044Z,12.73
2022-12-11T05:51:15.201Z,11.38
2022-12-11T05:53:43.987Z,11.45
2022-12-11T05:56:15.422Z,11.73
2022-12-11T05:58:44.181Z,12.40
2022-12-11T06:01:23.443Z,12.18
2022-12-11T06:03:50.377Z,11.63
2022-12-11T06:06:17.479Z,11.77
2022-12-11T06:08:44.575Z,12.00
2022-12-11T06:11:14.585Z,11.93
2022-12-11T06:13:43.118Z,10.40
2022-12-11T06:16:10.334Z,11.45
2022-12-11T06:18:44.171Z,11.70
2022-12-11T06:21:30.208Z,10.98
2022-12-11T06:24:02.697Z,10.48
2022-12-11T06:26:29.866Z,10.75
2022-12-11T06:28:56.765Z,10.98
2022-12-11T06:31:23.701Z,11.13
2022-12-11T06:33:50.530Z,11.40
2022-12-11T06:36:22.648Z,11.45
2022-12-11T06:38:50.679Z,11.30
2022-12-11T06:41:17.663Z,11.82
2022-12-11T06:43:44.756Z,11.07
2022-12-11T06:46:18.753Z,11.98
2022-12-11T06:48:46.792Z,10.70
2022-12-11T06:51:20.502Z,10.45
2022-12-11T06:53:52.921Z,11.05
2022-12-11T06:56:20.231Z,10.75
2022-12-11T06:58:47.101Z,11.07
2022-12-11T07:01:21.880Z,10.50
2022-12-11T07:03:49.132Z,10.35
2022-12-11T07:06:16.252Z,10.15
2022-12-11T07:08:43.571Z,10.68
2022-12-11T07:11:15.808Z,12.23
2022-12-11T07:13:42.765Z,11.85
2022-12-11T07:16:12.033Z,12.98
2022-12-11T07:18:41.566Z,11.63
2022-12-11T07:21:11.745Z,11.45
2022-12-11T07:23:38.608Z,9.70
2022-12-11T07:26:12.854Z,10.35
2022-12-11T07:28:40.075Z,9.60
2022-12-11T07:31:09.160Z,10.10
2022-12-11T07:33:36.147Z,10.18
2022-12-11T07:36:05.516Z,10.30
2022-12-11T07:38:32.387Z,9.73
2022-12-11T07:41:04.592Z,10.25
2022-12-11T07:43:32.205Z,9.70
2022-12-11T07:46:12.179Z,9.63
2022-12-11T07:48:40.856Z,10.27
2022-12-11T07:51:30.616Z,10.40
2022-12-11T07:54:08.371Z,9.60
2022-12-11T07:56:36.243Z,9.73
2022-12-11T07:59:05.172Z,10.07
2022-12-11T08:01:38.232Z,10.73
2022-12-11T08:04:08.132Z,7.95
2022-12-11T08:06:39.199Z,9.73
2022-12-11T08:09:10.153Z,9.70
2022-12-11T08:11:38.323Z,9.93
2022-12-11T08:14:06.699Z,9.20
2022-12-11T08:16:33.579Z,9.38
2022-12-11T08:19:00.452Z,10.30
2022-12-11T08:21:29.328Z,10.40
2022-12-11T08:23:56.431Z,10.05
2022-12-11T08:26:33.611Z,9.50
2022-12-11T08:29:02.583Z,9.70
2022-12-11T08:31:30.247Z,10.02
2022-12-11T08:33:57.929Z,10.57
2022-12-11T08:36:25.640Z,9.15
2022-12-11T08:38:55.012Z,10.02
2022-12-11T08:41:25.953Z,11.15
2022-12-11T08:43:55.121Z,9.65
2022-12-11T08:46:28.946Z,9.45
2022-12-11T08:48:56.621Z,9.63
2022-12-11T08:51:27.213Z,10.55
2022-12-11T08:54:00.464Z,10.23
2022-12-11T08:56:28.547Z,9.82
2022-12-11T08:58:55.809Z,10.38
2022-12-11T09:01:27.909Z,10.45
2022-12-11T09:03:56.655Z,9.95
2022-12-11T09:06:27.300Z,11.00
2022-12-11T09:08:55.980Z,9.55
2022-12-11T09:11:30.447Z,10.05
2022-12-11T09:14:02.083Z,9.73
2022-12-11T09:16:33.739Z,10.10
2022-12-11T09:19:00.872Z,9.60
2022-12-11T09:21:30.595Z,9.88
2022-12-11T09:24:01.017Z,9.02
2022-12-11T09:26:30.183Z,10.32
2022-12-11T09:28:57.611Z,10.13
2022-12-11T09:31:29.541Z,9.75
2022-12-11T09:34:08.758Z,9.18
2022-12-11T09:36:37.898Z,9.45
2022-12-11T09:39:07.891Z,8.90
2022-12-11T09:42:13.059Z,8.68
2022-12-11T09:44:59.950Z,9.70
2022-12-11T09:47:37.776Z,8.93
2022-12-11T09:50:10.374Z,9.02
2022-12-11T09:52:54.478Z,9.07
2022-12-11T09:55:25.432Z,9.95
2022-12-11T09:58:11.305Z,9.55
2022-12-11T10:00:57.743Z,9.85
2022-12-11T10:03:52.663Z,10.05
2022-12-11T10:06:32.221Z,9.73
2022-12-11T10:09:19.627Z,9.65
2022-12-11T10:12:18.984Z,9.07
2022-12-11T10:15:22.394Z,9.07
2022-12-11T10:17:51.446Z,8.88
2022-12-11T10:20:23.811Z,9.55
2022-12-11T10:22:52.444Z,9.23
2022-12-11T10:25:29.549Z,9.35
2022-12-11T10:27:57.542Z,9.20
2022-12-11T10:30:34.493Z,9.50
2022-12-11T10:33:11.391Z,9.80
2022-12-11T10:35:48.740Z,8.98
2022-12-11T10:38:21.477Z,9.13
2022-12-11T10:41:05.694Z,9.40
2022-12-11T10:46:28.090Z,9.15
2022-12-11T10:49:01.065Z,8.90
2022-12-11T10:51:30.859Z,9.27
2022-12-11T10:54:08.199Z,8.93
2022-12-11T10:56:37.748Z,10.18
2022-12-11T10:59:05.402Z,9.65
2022-12-11T11:01:32.944Z,8.88
2022-12-11T11:04:07.781Z,9.75
2022-12-11T11:06:34.590Z,10.02
2022-12-11T11:09:03.124Z,9.13
2022-12-11T11:11:34.462Z,10.07
2022-12-11T11:14:07.736Z,9.68
2022-12-11T11:16:41.317Z,8.60
2022-12-11T11:19:26.673Z,8.75
2022-12-11T11:22:06.877Z,9.00
2022-12-11T11:24:47.106Z,8.98
2022-12-11T11:27:30.537Z,9.82
2022-12-11T11:30:03.077Z,10.27
2022-12-11T11:32:38.726Z,10.35
2022-12-11T11:35:11.971Z,9.68
2022-12-11T11:37:44.666Z,10.10
2022-12-11T11:40:24.178Z,9.60
2022-12-11T11:43:10.593Z,10.20
2022-12-11T11:45:58.194Z,9.18
2022-12-11T11:48:40.088Z,9.70
2022-12-11T11:51:45.686Z,8.70
2022-12-11T11:54:42.499Z,9.40
2022-12-11T11:57:20.690Z,10.20
2022-12-11T11:59:58.123Z,9.52
2022-12-11T12:02:25.022Z,9.65
2022-12-11T12:04:51.921Z,9.57
2022-12-11T12:07:33.670Z,10.10
2022-12-11T12:10:28.569Z,10.48
2022-12-11T12:13:23.819Z,8.98
2022-12-11T12:16:00.103Z,10.25
2022-12-11T12:19:07.578Z,10.30
2022-12-11T12:21:38.984Z,10.52
2022-12-11T12:24:43.887Z,10.57
2022-12-11T12:30:22.418Z,9.25
2022-12-11T12:33:19.864Z,10.27
2022-12-11T12:36:10.814Z,9.60
2022-12-11T12:39:04.662Z,9.43
2022-12-11T12:41:55.237Z,8.95
2022-12-11T12:44:25.185Z,9.85
2022-12-11T12:47:10.786Z,10.45
2022-12-11T12:49:45.789Z,9.80
2022-12-11T12:52:29.888Z,9.65
2022-12-11T12:55:15.998Z,8.82
2022-12-11T12:57:57.733Z,9.68
2022-12-11T13:00:39.046Z,9.88
2022-12-11T13:03:18.386Z,10.73
2022-12-11T13:06:02.210Z,9.93
2022-12-11T13:08:39.584Z,9.35
2022-12-11T13:11:12.612Z,10.07
2022-12-11T13:13:55.133Z,10.70
2022-12-11T13:16:36.463Z,10.25
2022-12-11T13:19:03.808Z,10.30
2022-12-11T13:21:38.319Z,10.60
2022-12-11T13:24:27.822Z,10.25
2022-12-11T13:26:55.345Z,11.07
2022-12-11T13:29:36.193Z,11.32
2022-12-11T13:32:24.455Z,10.98
2022-12-11T13:34:58.869Z,10.57
2022-12-11T13:37:34.246Z,10.30
2022-12-11T13:40:17.452Z,10.18
2022-12-11T13:42:54.400Z,9.63
2022-12-11T13:45:38.586Z,9.60
2022-12-11T13:48:36.833Z,9.48
2022-12-11T13:51:05.527Z,9.70
2022-12-11T13:53:33.083Z,9.52
2022-12-11T13:56:20.073Z,9.75
2022-12-11T13:58:48.006Z,9.82
2022-12-11T14:01:22.972Z,10.50
2022-12-11T14:04:12.383Z,10.52
2022-12-11T14:06:39.820Z,10.93
2022-12-11T14:09:08.633Z,11.05
2022-12-11T14:11:43.546Z,10.68
2022-12-11T14:14:25.058Z,11.15
2022-12-11T14:16:53.181Z,10.70
2022-12-11T14:19:23.041Z,10.02
2022-12-11T14:22:02.642Z,11.13
2022-12-11T14:24:31.647Z,10.10
2022-12-11T14:26:59.440Z,10.35
2022-12-11T14:29:33.082Z,11.30
2022-12-11T14:32:05.541Z,11.65
2022-12-11T14:34:39.170Z,10.35
2022-12-11T14:37:08.212Z,10.35
2022-12-11T14:39:47.717Z,11.27
2022-12-11T14:42:27.166Z,10.60
2022-12-11T14:45:06.089Z,11.70
2022-12-11T14:47:40.968Z,10.55
2022-12-11T14:50:37.918Z,10.02
2022-12-11T14:53:13.449Z,10.43
2022-12-11T14:55:41.231Z,10.75
2022-12-11T14:58:17.982Z,11.10
2022-12-11T15:00:55.374Z,11.32
2022-12-11T15:03:24.813Z,12.00
2022-12-11T15:05:57.940Z,11.60
2022-12-11T15:08:36.958Z,10.75
2022-12-11T15:11:13.350Z,10.98
2022-12-11T15:14:00.214Z,10.32
2022-12-11T15:16:34.684Z,11.13
2022-12-11T15:19:02.152Z,11.73
2022-12-11T15:21:35.983Z,12.27
2022-12-11T15:24:05.936Z,11.07
2022-12-11T15:26:47.855Z,10.30
2022-12-11T15:29:38.368Z,11.82
2022-12-11T15:32:19.024Z,10.77
2022-12-11T15:34:58.928Z,12.00
2022-12-11T15:37:32.632Z,11.43
2022-12-11T15:40:03.397Z,11.30
2022-12-11T15:42:39.927Z,10.80
2022-12-11T15:45:15.422Z,10.70
2022-12-11T15:47:43.761Z,10.57
2022-12-11T15:50:29.166Z,10.13
2022-12-11T15:52:57.036Z,9.38
2022-12-11T15:55:29.651Z,11.23
2022-12-11T15:58:01.889Z,10.68
2022-12-11T16:00:28.947Z,11.30
2022-12-11T16:02:57.319Z,10.07
2022-12-11T16:05:25.613Z,10.02
2022-12-11T16:07:54.022Z,9.75
2022-12-11T16:10:22.557Z,11.07
2022-12-11T16:12:49.387Z,10.45
2022-12-11T16:15:23.119Z,10.18
2022-12-11T16:17:50.654Z,10.30
2022-12-11T16:20:17.606Z,11.82
2022-12-11T16:22:44.697Z,9.98
2022-12-11T16:25:11.798Z,10.90
2022-12-11T16:27:39.141Z,12.18
2022-12-11T16:30:06.733Z,11.23
2022-12-11T16:32:33.655Z,10.95
2022-12-11T16:35:01.118Z,11.48
2022-12-11T16:37:28.362Z,10.57
2022-12-11T16:39:55.252Z,10.38
2022-12-11T16:42:21.984Z,11.02
2022-12-11T16:44:49.082Z,11.48
2022-12-11T16:47:16.012Z,11.23
2022-12-11T16:49:45.683Z,10.57
2022-12-11T16:52:14.437Z,11.15
2022-12-11T16:54:44.451Z,11.82
2022-12-11T16:57:11.142Z,11.10
2022-12-11T16:59:37.919Z,11.25
2022-12-11T17:02:05.437Z,10.48
2022-12-11T17:04:32.585Z,10.85
2022-12-11T17:06:59.370Z,11.70
2022-12-11T17:09:26.141Z,11.82
2022-12-11T17:11:52.877Z,10.85
2022-12-11T17:14:20.257Z,11.45
2022-12-11T17:16:48.112Z,11.55
2022-12-11T17:19:15.788Z,11.43
2022-12-11T17:21:48.431Z,11.43
2022-12-11T17:24:18.703Z,10.80
2022-12-11T17:26:45.704Z,11.60
2022-12-11T17:29:13.353Z,12.68
2022-12-11T17:31:41.007Z,12.05
2022-12-11T17:34:08.029Z,12.10
2022-12-11T17:36:34.853Z,12.73
2022-12-11T17:39:01.674Z,12.10
2022-12-11T17:41:28.408Z,12.10
2022-12-11T17:43:56.077Z,13.68
2022-12-11T17:46:23.090Z,13.23
2022-12-11T17:48:49.874Z,12.88
2022-12-11T17:51:21.969Z,13.50
2022-12-11T17:53:48.782Z,12.05
2022-12-11T17:56:16.478Z,12.85
2022-12-11T17:58:43.743Z,12.07
2022-12-11T18:01:13.171Z,12.35
2022-12-11T18:03:41.337Z,12.65
2022-12-11T18:06:14.492Z,13.18
2022-12-11T18:08:41.786Z,12.85
2022-12-11T18:11:14.505Z,13.80
2022-12-11T18:13:43.511Z,12.65
2022-12-11T18:16:19.798Z,12.77
2022-12-11T18:18:48.707Z,13.18
2022-12-11T18:21:19.478Z,13.32
2022-12-11T18:23:47.157Z,13.90
2022-12-11T18:26:14.583Z,12.80
2022-12-11T18:28:42.244Z,12.20
2022-12-11T18:31:10.311Z,12.45
2022-12-11T18:33:39.607Z,11.68
2022-12-11T18:36:07.288Z,12.15
2022-12-11T18:38:34.584Z,12.73
2022-12-11T18:41:08.071Z,11.95
2022-12-11T18:43:36.341Z,12.63
2022-12-11T18:46:14.036Z,12.70
2022-12-11T18:48:45.894Z,12.88
2022-12-11T18:51:17.387Z,12.20
2022-12-11T18:53:45.066Z,12.18
2022-12-11T18:56:16.343Z,12.27
2022-12-11T18:58:43.673Z,10.80
2022-12-11T19:01:20.684Z,11.35
2022-12-11T19:03:49.637Z,11.18
2022-12-11T19:06:21.439Z,12.32
2022-12-11T19:08:48.629Z,10.90
2022-12-11T19:11:18.160Z,12.38
2022-12-11T19:13:45.601Z,12.18
2022-12-11T19:16:22.209Z,13.18
2022-12-11T19:18:50.249Z,11.57
2022-12-11T19:21:18.620Z,13.05
2022-12-11T19:23:46.529Z,11.60
2022-12-11T19:26:17.366Z,11.45
2022-12-11T19:28:44.716Z,11.75
2022-12-11T19:31:15.106Z,11.77
2022-12-11T19:33:43.384Z,12.20
2022-12-11T19:36:20.789Z,11.63
2022-12-11T19:38:48.784Z,11.27
2022-12-11T19:41:18.876Z,11.60
2022-12-11T19:43:45.787Z,11.80
2022-12-11T19:46:14.363Z,12.82
2022-12-11T19:48:41.699Z,12.23
2022-12-11T19:51:15.169Z,10.93
2022-12-11T19:53:43.945Z,12.00
2022-12-11T19:56:11.785Z,11.75
2022-12-11T19:58:39.155Z,11.70
2022-12-11T20:01:07.379Z,12.23
2022-12-11T20:03:35.676Z,13.02
2022-12-11T20:06:05.142Z,11.52
2022-12-11T20:08:44.659Z,11.57
2022-12-11T20:11:17.555Z,11.10
2022-12-11T20:13:45.917Z,12.85
2022-12-11T20:16:14.189Z,12.43
2022-12-11T20:18:41.453Z,11.60
2022-12-11T20:21:12.859Z,11.52
2022-12-11T20:23:39.938Z,12.00
2022-12-11T20:26:13.927Z,12.27
2022-12-11T20:31:18.232Z,12.65
2022-12-11T20:33:49.216Z,12.70
2022-12-11T20:36:19.004Z,11.45
2022-12-11T20:38:45.739Z,11.20
2022-12-11T20:41:16.744Z,11.48
2022-12-11T20:43:43.693Z,11.90
2022-12-11T20:46:14.798Z,11.48
2022-12-11T20:48:44.034Z,11.63
2022-12-11T20:51:14.341Z,13.43
2022-12-11T20:53:42.363Z,12.85
2022-12-11T20:56:16.372Z,13.35
2022-12-11T21:01:20.219Z,11.90
2022-12-11T21:03:47.658Z,12.40
2022-12-11T21:06:25.349Z,13.93
2022-12-11T21:08:53.270Z,13.30
2022-12-11T21:11:20.516Z,12.23
2022-12-11T21:13:47.260Z,13.07
2022-12-11T21:16:14.191Z,14.63
2022-12-11T21:18:41.576Z,14.57
2022-12-11T21:21:08.319Z,14.90
2022-12-11T21:23:35.192Z,13.43
2022-12-11T21:26:03.307Z,13.48
2022-12-11T21:28:35.213Z,12.93
2022-12-11T21:31:06.571Z,14.25
2022-12-11T21:33:34.409Z,12.63
2022-12-11T21:36:02.371Z,13.20
2022-12-11T21:38:29.472Z,12.52
2022-12-11T21:40:56.942Z,12.85
2022-12-11T21:43:24.777Z,14.02
2022-12-11T21:46:01.075Z,13.45
2022-12-11T21:48:29.086Z,13.65
2022-12-11T21:51:03.700Z,14.38
2022-12-11T21:53:30.467Z,13.57
2022-12-11T21:55:57.195Z,14.38
2022-12-11T21:58:23.915Z,20.38
2022-12-11T22:00:50.721Z,15.30
2022-12-11T22:03:17.478Z,14.13
2022-12-11T22:05:44.185Z,14.07
2022-12-11T22:08:10.951Z,14.48
2022-12-11T22:10:37.786Z,13.38
2022-12-11T22:13:05.069Z,16.92
2022-12-11T22:15:31.804Z,15.50
2022-12-11T22:17:58.503Z,15.93
2022-12-11T22:20:25.209Z,13.77
2022-12-11T22:22:51.968Z,14.18
2022-12-11T22:25:18.795Z,14.68
2022-12-11T22:27:45.515Z,13.55
2022-12-11T22:30:12.814Z,13.60
2022-12-11T22:32:39.838Z,15.35
2022-12-11T22:35:07.244Z,15.30
2022-12-11T22:37:34.567Z,14.88
2022-12-11T22:40:01.286Z,14.75
2022-12-11T22:42:28.068Z,15.05
2022-12-11T22:44:54.859Z,14.48
2022-12-11T22:47:21.589Z,14.50
2022-12-11T22:49:48.306Z,14.82
2022-12-11T22:52:15.143Z,15.60
2022-12-11T22:54:42.877Z,15.95
2022-12-11T22:57:10.093Z,15.93
2022-12-11T22:59:37.204Z,14.30
2022-12-11T23:02:04.021Z,14.50
2022-12-11T23:04:30.816Z,15.38
2022-12-11T23:06:58.257Z,15.30
2022-12-11T23:09:25.323Z,15.20
2022-12-11T23:11:52.357Z,16.88
2022-12-11T23:14:19.565Z,14.60
2022-12-11T23:16:46.381Z,14.15
2022-12-11T23:19:13.667Z,14.00
2022-12-11T23:21:40.466Z,14.52
2022-12-11T23:24:07.823Z,14.70
2022-12-11T23:26:34.630Z,15.38
2022-12-11T23:29:01.994Z,13.18
2022-12-11T23:31:30.181Z,13.90
2022-12-11T23:33:57.418Z,14.18
2022-12-11T23:36:25.871Z,14.68
2022-12-11T23:38:54.920Z,16.00
2022-12-11T23:41:23.463Z,14.77
2022-12-11T23:43:50.227Z,13.90
2022-12-11T23:46:21.641Z,15.80
2022-12-11T23:48:49.218Z,14.05
2022-12-11T23:51:18.489Z,14.60
2022-12-11T23:53:45.567Z,14.77
2022-12-11T23:56:23.593Z,15.35
2022-12-11T23:58:52.049Z,16.27
